Time;durP1;ratioP1;P1;durP2;ratioP2;P2;SDS_P1;SDS_P2;PMS_P1;PMS_P2;Temp;Humidity;BMP_temperature;BMP_pressure;BME280_temperature;BME280_humidity;BME280_pressure;Samples;Min_cycle;Max_cycle;Signal;HPM_P1;HPM_P2
2023/09/19 00:01:07;;;;;;;12.95;2.30;;;;;;;;;;6184456;23;20024;-47
2023/09/19 00:03:37;;;;;;;15.95;1.60;;;;;;;;;;6176776;23;20099;-48
2023/09/19 00:06:07;;;;;;;23.60;2.50;;;;;;;;;;6184551;23;20012;-48
2023/09/19 00:08:35;;;;;;;14.00;1.77;;;;;;;;;;6181331;23;20051;-46
2023/09/19 00:11:03;;;;;;;13.90;1.70;;;;;;;;;;6190728;23;20021;-48
2023/09/19 00:13:31;;;;;;;11.27;2.05;;;;;;;;;;6179429;23;20375;-50
2023/09/19 00:15:59;;;;;;;15.45;1.98;;;;;;;;;;6191326;23;20016;-48
2023/09/19 00:18:32;;;;;;;12.60;1.58;;;;;;;;;;6180164;23;20017;-47
2023/09/19 00:21:00;;;;;;;16.63;2.95;;;;;;;;;;6186975;23;20024;-48
2023/09/19 00:23:28;;;;;;;17.53;2.53;;;;;;;;;;6178006;23;20036;-48
2023/09/19 00:26:01;;;;;;;12.55;1.83;;;;;;;;;;6186228;23;20439;-47
2023/09/19 00:28:31;;;;;;;20.85;2.65;;;;;;;;;;6187791;23;20070;-47
2023/09/19 00:31:01;;;;;;;19.17;2.72;;;;;;;;;;6182180;23;20019;-46
2023/09/19 00:33:30;;;;;;;16.95;2.03;;;;;;;;;;6164302;23;20020;-47
2023/09/19 00:35:59;;;;;;;13.63;1.97;;;;;;;;;;6181317;23;20024;-47
2023/09/19 00:38:27;;;;;;;14.52;2.42;;;;;;;;;;6196516;23;20031;-46
2023/09/19 00:40:59;;;;;;;20.92;2.45;;;;;;;;;;6182723;23;20115;-50
2023/09/19 00:43:28;;;;;;;13.65;2.22;;;;;;;;;;6187090;23;20040;-48
2023/09/19 00:45:57;;;;;;;16.27;1.92;;;;;;;;;;6183038;23;20012;-47
2023/09/19 00:48:28;;;;;;;18.70;2.43;;;;;;;;;;6190647;23;20017;-50
2023/09/19 00:50:59;;;;;;;17.23;1.88;;;;;;;;;;6149886;23;20595;-47
2023/09/19 00:53:27;;;;;;;15.82;2.20;;;;;;;;;;6190590;23;20016;-48
2023/09/19 00:55:56;;;;;;;16.25;1.95;;;;;;;;;;6182952;23;20024;-47
2023/09/19 00:58:24;;;;;;;12.95;1.95;;;;;;;;;;6191936;23;20013;-47
2023/09/19 01:00:53;;;;;;;14.43;2.23;;;;;;;;;;6174106;23;20048;-46
2023/09/19 01:03:21;;;;;;;18.98;2.47;;;;;;;;;;6188869;23;20067;-46
2023/09/19 01:05:49;;;;;;;15.85;1.67;;;;;;;;;;6181869;23;20040;-47
2023/09/19 01:08:19;;;;;;;18.05;3.42;;;;;;;;;;6194068;23;20013;-48
2023/09/19 01:10:52;;;;;;;22.85;2.67;;;;;;;;;;6164408;23;20067;-50
2023/09/19 01:13:24;;;;;;;13.83;1.87;;;;;;;;;;6163042;23;20030;-47
2023/09/19 01:15:56;;;;;;;19.88;2.10;;;;;;;;;;6185670;23;20021;-47
2023/09/19 01:18:28;;;;;;;17.13;1.95;;;;;;;;;;6188106;23;20017;-52
2023/09/19 01:21:00;;;;;;;17.83;2.22;;;;;;;;;;6186661;23;20074;-47
2023/09/19 01:23:37;;;;;;;19.25;2.65;;;;;;;;;;6191580;23;20024;-47
2023/09/19 01:26:08;;;;;;;20.50;2.07;;;;;;;;;;6179355;23;20078;-48
2023/09/19 01:28:47;;;;;;;20.42;2.10;;;;;;;;;;6183893;23;20029;-51
2023/09/19 01:31:16;;;;;;;15.57;2.25;;;;;;;;;;6186619;23;20025;-47
2023/09/19 01:34:00;;;;;;;15.65;1.58;;;;;;;;;;6180076;23;20096;-47
2023/09/19 01:36:29;;;;;;;17.90;1.88;;;;;;;;;;6184310;23;20074;-47
2023/09/19 01:39:00;;;;;;;16.63;2.20;;;;;;;;;;6168015;23;20012;-47
2023/09/19 01:41:37;;;;;;;13.68;2.17;;;;;;;;;;6198320;23;20020;-47
2023/09/19 01:44:07;;;;;;;19.90;3.05;;;;;;;;;;6190246;23;20039;-48
2023/09/19 01:46:37;;;;;;;17.50;1.75;;;;;;;;;;6187657;23;20095;-46
2023/09/19 01:49:11;;;;;;;18.88;1.85;;;;;;;;;;6195021;23;20023;-47
2023/09/19 01:51:43;;;;;;;18.27;2.07;;;;;;;;;;6188852;23;20020;-47
2023/09/19 01:54:13;;;;;;;19.00;2.72;;;;;;;;;;6136642;23;20044;-48
2023/09/19 01:56:46;;;;;;;16.48;1.75;;;;;;;;;;6157511;23;20023;-46
2023/09/19 01:59:14;;;;;;;19.67;2.45;;;;;;;;;;6199381;23;20019;-49
2023/09/19 02:01:47;;;;;;;18.67;2.03;;;;;;;;;;6188697;23;20020;-50
2023/09/19 02:04:15;;;;;;;14.87;1.43;;;;;;;;;;6196274;23;20016;-48
2023/09/19 02:06:47;;;;;;;16.52;1.95;;;;;;;;;;6182223;23;20021;-48
2023/09/19 02:09:15;;;;;;;16.80;1.83;;;;;;;;;;6195991;23;20017;-47
2023/09/19 02:11:43;;;;;;;17.25;1.80;;;;;;;;;;6188548;23;20021;-48
2023/09/19 02:14:11;;;;;;;13.30;1.63;;;;;;;;;;6192016;23;20013;-47
2023/09/19 02:16:39;;;;;;;24.60;2.03;;;;;;;;;;6198857;23;20020;-50
2023/09/19 02:19:08;;;;;;;13.98;1.90;;;;;;;;;;6184316;23;20096;-47
2023/09/19 02:21:40;;;;;;;16.70;3.17;;;;;;;;;;6192496;23;20020;-47
2023/09/19 02:24:10;;;;;;;18.10;2.83;;;;;;;;;;6192712;23;20055;-46
2023/09/19 02:26:38;;;;;;;15.48;2.05;;;;;;;;;;6178327;23;20016;-48
2023/09/19 02:29:05;;;;;;;13.33;2.70;;;;;;;;;;6195192;23;20017;-46
2023/09/19 02:31:33;;;;;;;16.45;2.00;;;;;;;;;;6186183;23;20091;-49
2023/09/19 02:34:01;;;;;;;15.10;1.75;;;;;;;;;;6187597;23;20108;-47
2023/09/19 02:36:30;;;;;;;14.13;1.70;;;;;;;;;;6190570;23;20017;-47
2023/09/19 02:38:58;;;;;;;17.33;2.05;;;;;;;;;;6196160;23;20020;-47
2023/09/19 02:41:29;;;;;;;16.13;2.00;;;;;;;;;;6181106;23;20463;-47
2023/09/19 02:44:02;;;;;;;13.13;2.40;;;;;;;;;;6186555;23;20013;-49
2023/09/19 02:46:31;;;;;;;14.40;2.20;;;;;;;;;;6185979;23;20017;-48
2023/09/19 02:48:59;;;;;;;13.63;1.50;;;;;;;;;;6169528;23;20511;-50
2023/09/19 02:51:26;;;;;;;23.40;2.55;;;;;;;;;;6194743;23;20013;-47
2023/09/19 02:53:56;;;;;;;14.17;1.53;;;;;;;;;;6195498;23;20020;-47
2023/09/19 02:56:24;;;;;;;9.50;1.38;;;;;;;;;;6192621;23;20743;-46
2023/09/19 02:58:53;;;;;;;13.32;2.30;;;;;;;;;;6183834;23;20095;-48
2023/09/19 03:01:20;;;;;;;10.88;1.23;;;;;;;;;;6193786;23;20016;-47
2023/09/19 03:03:48;;;;;;;12.13;1.38;;;;;;;;;;6161324;23;20017;-46
2023/09/19 03:06:19;;;;;;;12.53;1.93;;;;;;;;;;6160616;23;20013;-47
2023/09/19 03:08:48;;;;;;;14.13;1.67;;;;;;;;;;6152882;23;20052;-51
2023/09/19 03:11:21;;;;;;;12.27;1.23;;;;;;;;;;6165534;23;20013;-47
2023/09/19 03:13:53;;;;;;;9.35;1.55;;;;;;;;;;6153044;23;20091;-48
2023/09/19 03:16:22;;;;;;;9.82;1.60;;;;;;;;;;6161506;23;20024;-48
2023/09/19 03:18:52;;;;;;;13.73;2.00;;;;;;;;;;6162517;23;20096;-47
2023/09/19 03:21:21;;;;;;;12.98;1.98;;;;;;;;;;6154777;23;20037;-47
2023/09/19 03:23:49;;;;;;;13.38;2.30;;;;;;;;;;6160219;23;20035;-47
2023/09/19 03:26:19;;;;;;;17.02;1.88;;;;;;;;;;6149504;23;20432;-48
2023/09/19 03:28:47;;;;;;;14.15;1.50;;;;;;;;;;6165183;23;20025;-47
2023/09/19 03:31:15;;;;;;;13.67;1.60;;;;;;;;;;6153460;23;20021;-49
2023/09/19 03:33:43;;;;;;;10.85;1.42;;;;;;;;;;6163480;23;20017;-48
2023/09/19 03:36:10;;;;;;;10.73;1.38;;;;;;;;;;6153138;23;20436;-48
2023/09/19 03:38:38;;;;;;;11.82;1.20;;;;;;;;;;6122140;23;20343;-47
2023/09/19 03:41:06;;;;;;;13.32;1.42;;;;;;;;;;6156870;23;20311;-47
2023/09/19 03:43:35;;;;;;;11.17;1.20;;;;;;;;;;6165430;23;20033;-48
2023/09/19 03:46:04;;;;;;;14.65;1.30;;;;;;;;;;6149440;23;20027;-48
2023/09/19 03:48:33;;;;;;;15.93;1.33;;;;;;;;;;6166556;23;20018;-48
2023/09/19 03:51:02;;;;;;;13.60;1.67;;;;;;;;;;6151355;23;20013;-47
2023/09/19 03:53:29;;;;;;;14.25;1.23;;;;;;;;;;6165437;23;20044;-47
2023/09/19 03:55:57;;;;;;;13.17;1.40;;;;;;;;;;6142738;23;20100;-47
2023/09/19 03:58:25;;;;;;;16.73;1.65;;;;;;;;;;6156816;23;20464;-48
2023/09/19 04:00:57;;;;;;;13.05;1.40;;;;;;;;;;6161015;23;20417;-49
2023/09/19 04:03:34;;;;;;;12.35;2.22;;;;;;;;;;6156850;23;20025;-49
2023/09/19 04:06:03;;;;;;;12.60;1.40;;;;;;;;;;6158927;23;20013;-49
2023/09/19 04:08:32;;;;;;;15.53;1.90;;;;;;;;;;6166110;23;20017;-50
2023/09/19 04:10:59;;;;;;;16.52;1.73;;;;;;;;;;6149370;23;20013;-49
2023/09/19 04:13:27;;;;;;;9.43;1.33;;;;;;;;;;6159165;23;20017;-48
2023/09/19 04:15:56;;;;;;;10.23;0.68;;;;;;;;;;6159921;23;20017;-49
2023/09/19 04:18:24;;;;;;;10.55;1.20;;;;;;;;;;6154664;23;20020;-47
2023/09/19 04:20:52;;;;;;;13.57;1.60;;;;;;;;;;6153791;23;20013;-46
2023/09/19 04:23:20;;;;;;;9.98;1.00;;;;;;;;;;6158220;23;20017;-47
2023/09/19 04:25:48;;;;;;;13.95;1.40;;;;;;;;;;6155020;23;20388;-47
2023/09/19 04:28:16;;;;;;;10.73;1.33;;;;;;;;;;6156406;23;20053;-48
2023/09/19 04:30:44;;;;;;;9.95;1.10;;;;;;;;;;6162621;23;20045;-49
2023/09/19 04:33:14;;;;;;;9.00;0.87;;;;;;;;;;6103451;23;20021;-47
2023/09/19 04:35:43;;;;;;;11.65;1.60;;;;;;;;;;6170668;23;20020;-47
2023/09/19 04:38:12;;;;;;;10.23;1.00;;;;;;;;;;6150398;23;20452;-47
2023/09/19 04:40:40;;;;;;;12.43;1.15;;;;;;;;;;6161538;23;20036;-47
2023/09/19 04:43:10;;;;;;;10.82;1.10;;;;;;;;;;6157754;23;20021;-47
2023/09/19 04:45:39;;;;;;;9.00;0.90;;;;;;;;;;6152442;23;20024;-47
2023/09/19 04:48:08;;;;;;;10.07;1.33;;;;;;;;;;6155368;23;20466;-49
2023/09/19 04:50:38;;;;;;;7.82;1.10;;;;;;;;;;6151934;23;20448;-47
2023/09/19 04:53:07;;;;;;;7.32;0.98;;;;;;;;;;6154990;23;20105;-47
2023/09/19 04:55:34;;;;;;;6.32;0.60;;;;;;;;;;6150811;23;20021;-51
2023/09/19 04:58:02;;;;;;;8.53;0.90;;;;;;;;;;6148680;23;20055;-49
2023/09/19 05:00:34;;;;;;;7.45;0.57;;;;;;;;;;6159625;23;20013;-47
2023/09/19 05:03:04;;;;;;;8.48;1.10;;;;;;;;;;6156165;23;20430;-48
2023/09/19 05:05:34;;;;;;;8.43;0.77;;;;;;;;;;6186673;23;20028;-49
2023/09/19 05:08:05;;;;;;;7.82;0.60;;;;;;;;;;6187375;23;20532;-47
2023/09/19 05:10:33;;;;;;;7.53;0.90;;;;;;;;;;6156936;23;20024;-49
2023/09/19 05:13:02;;;;;;;5.15;0.60;;;;;;;;;;6182181;23;20021;-47
2023/09/19 05:15:30;;;;;;;9.52;0.82;;;;;;;;;;6184828;23;20044;-48
2023/09/19 05:17:58;;;;;;;7.18;0.70;;;;;;;;;;6171127;23;20518;-48
2023/09/19 05:20:29;;;;;;;4.95;0.45;;;;;;;;;;6173954;23;20021;-48
2023/09/19 05:23:01;;;;;;;7.60;0.63;;;;;;;;;;6178963;23;20321;-46
2023/09/19 05:25:37;;;;;;;6.22;0.50;;;;;;;;;;6164292;23;20023;-48
2023/09/19 05:28:05;;;;;;;5.80;0.90;;;;;;;;;;6144457;23;20013;-48
2023/09/19 05:30:35;;;;;;;6.43;1.13;;;;;;;;;;6167840;23;20020;-49
2023/09/19 05:33:04;;;;;;;6.90;0.82;;;;;;;;;;6161311;23;20674;-48
2023/09/19 05:35:32;;;;;;;8.93;0.80;;;;;;;;;;6185646;23;20013;-47
2023/09/19 05:38:19;;;;;;;7.82;0.85;;;;;;;;;;6182889;23;20352;-51
2023/09/19 05:40:52;;;;;;;5.32;0.77;;;;;;;;;;6182639;23;20054;-49
2023/09/19 05:43:19;;;;;;;4.57;1.27;;;;;;;;;;6191959;23;20020;-51
2023/09/19 05:45:47;;;;;;;4.72;0.80;;;;;;;;;;6165550;23;20027;-48
2023/09/19 05:48:15;;;;;;;7.63;1.20;;;;;;;;;;6184750;23;20020;-47
2023/09/19 05:50:44;;;;;;;7.70;0.80;;;;;;;;;;6177418;23;20016;-48
2023/09/19 05:53:14;;;;;;;9.57;1.88;;;;;;;;;;6171174;23;20321;-50
2023/09/19 05:55:43;;;;;;;10.50;1.17;;;;;;;;;;6184741;23;20023;-51
2023/09/19 05:58:13;;;;;;;6.85;0.82;;;;;;;;;;6180682;23;20051;-48
2023/09/19 06:00:44;;;;;;;7.00;1.40;;;;;;;;;;6178728;23;20012;-49
2023/09/19 06:03:13;;;;;;;8.82;0.80;;;;;;;;;;6185003;23;20013;-48
2023/09/19 06:05:41;;;;;;;12.35;0.80;;;;;;;;;;6182799;23;20016;-47
2023/09/19 06:08:09;;;;;;;10.93;1.50;;;;;;;;;;6182887;23;20017;-47
2023/09/19 06:10:37;;;;;;;11.32;1.33;;;;;;;;;;6184317;23;20020;-48
2023/09/19 06:13:06;;;;;;;9.60;1.27;;;;;;;;;;6182456;23;20456;-47
2023/09/19 06:15:36;;;;;;;10.38;1.20;;;;;;;;;;6173133;23;20407;-47
2023/09/19 06:18:04;;;;;;;10.45;1.05;;;;;;;;;;6174556;23;20330;-47
2023/09/19 06:20:34;;;;;;;11.20;1.80;;;;;;;;;;6183956;23;20012;-50
2023/09/19 06:23:02;;;;;;;8.48;1.20;;;;;;;;;;6173241;23;20041;-48
2023/09/19 06:25:30;;;;;;;7.97;1.17;;;;;;;;;;6143662;23;20021;-48
2023/09/19 06:27:58;;;;;;;11.50;1.60;;;;;;;;;;6180378;23;20051;-46
2023/09/19 06:30:26;;;;;;;9.88;1.42;;;;;;;;;;6174041;23;20023;-48
2023/09/19 06:32:58;;;;;;;9.88;1.40;;;;;;;;;;6187263;23;20013;-49
2023/09/19 06:35:27;;;;;;;7.20;1.05;;;;;;;;;;6184828;23;20044;-49
2023/09/19 06:37:57;;;;;;;10.63;1.50;;;;;;;;;;6181850;23;20024;-49
2023/09/19 06:40:28;;;;;;;11.52;2.42;;;;;;;;;;6186205;23;20031;-47
2023/09/19 06:42:56;;;;;;;6.85;2.13;;;;;;;;;;6180155;23;20017;-49
2023/09/19 06:45:26;;;;;;;6.82;1.60;;;;;;;;;;6186221;23;20017;-47
2023/09/19 06:47:57;;;;;;;8.57;1.40;;;;;;;;;;6177156;23;20059;-45
2023/09/19 06:50:27;;;;;;;9.10;1.73;;;;;;;;;;6191564;23;20017;-46
2023/09/19 06:52:57;;;;;;;12.35;1.48;;;;;;;;;;6175454;23;20421;-46
2023/09/19 06:55:27;;;;;;;8.15;1.35;;;;;;;;;;6162837;23;20055;-46
2023/09/19 06:57:57;;;;;;;7.13;1.52;;;;;;;;;;6158884;23;20477;-47
2023/09/19 07:00:25;;;;;;;6.15;1.20;;;;;;;;;;6190897;23;20448;-46
2023/09/19 07:02:58;;;;;;;8.67;2.60;;;;;;;;;;6178354;23;20406;-48
2023/09/19 07:05:28;;;;;;;8.82;1.90;;;;;;;;;;6185606;23;20028;-47
2023/09/19 07:07:58;;;;;;;10.40;1.90;;;;;;;;;;6172805;23;20624;-46
2023/09/19 07:10:27;;;;;;;11.05;2.17;;;;;;;;;;6178235;23;20491;-47
2023/09/19 07:12:56;;;;;;;8.88;2.10;;;;;;;;;;6183718;23;20021;-49
2023/09/19 07:15:25;;;;;;;11.50;1.73;;;;;;;;;;6171060;23;20016;-46
2023/09/19 07:17:53;;;;;;;10.80;1.55;;;;;;;;;;6175841;23;20032;-46
2023/09/19 07:20:21;;;;;;;12.18;2.08;;;;;;;;;;6135442;23;20100;-48
2023/09/19 07:22:51;;;;;;;9.00;1.52;;;;;;;;;;6172150;23;20642;-46
2023/09/19 07:25:19;;;;;;;14.00;2.28;;;;;;;;;;6194474;23;20020;-48
2023/09/19 07:27:47;;;;;;;11.73;2.17;;;;;;;;;;6173219;23;20013;-46
2023/09/19 07:30:16;;;;;;;9.88;1.65;;;;;;;;;;6182038;23;20393;-49
2023/09/19 07:32:44;;;;;;;11.65;2.08;;;;;;;;;;6174810;23;20091;-47
2023/09/19 07:35:12;;;;;;;11.18;1.90;;;;;;;;;;6180541;23;20016;-46
2023/09/19 07:37:40;;;;;;;19.35;2.55;;;;;;;;;;6176628;23;20016;-47
2023/09/19 07:40:10;;;;;;;11.30;2.50;;;;;;;;;;6181980;23;20350;-49
2023/09/19 07:42:40;;;;;;;15.60;2.70;;;;;;;;;;6152868;23;20573;-48
2023/09/19 07:45:09;;;;;;;13.70;2.78;;;;;;;;;;6189015;23;20103;-48
2023/09/19 07:47:37;;;;;;;15.95;2.40;;;;;;;;;;6162498;23;20029;-49
2023/09/19 07:50:07;;;;;;;14.82;3.00;;;;;;;;;;6183289;23;20515;-47
2023/09/19 07:52:35;;;;;;;17.63;3.10;;;;;;;;;;6172230;23;20020;-47
2023/09/19 07:55:08;;;;;;;13.82;2.65;;;;;;;;;;6178086;23;20043;-49
2023/09/19 07:57:41;;;;;;;17.33;2.50;;;;;;;;;;6182831;23;20071;-47
2023/09/19 08:00:11;;;;;;;18.92;3.70;;;;;;;;;;6181745;23;20021;-47
2023/09/19 08:02:40;;;;;;;17.95;2.63;;;;;;;;;;6130700;23;20932;-49
2023/09/19 08:05:09;;;;;;;18.67;3.77;;;;;;;;;;6177722;23;20025;-47
2023/09/19 08:07:37;;;;;;;11.27;2.28;;;;;;;;;;6118876;23;20525;-47
2023/09/19 08:10:07;;;;;;;12.20;3.05;;;;;;;;;;6098505;23;20112;-50
2023/09/19 08:12:36;;;;;;;15.50;2.63;;;;;;;;;;6162756;23;20021;-48
2023/09/19 08:15:09;;;;;;;17.17;3.15;;;;;;;;;;6076361;23;20930;-50
2023/09/19 08:17:39;;;;;;;16.33;2.80;;;;;;;;;;6102123;23;20579;-48
2023/09/19 08:20:09;;;;;;;11.50;2.70;;;;;;;;;;6136092;23;20012;-51
2023/09/19 08:22:36;;;;;;;11.38;2.53;;;;;;;;;;6132450;23;20028;-49
2023/09/19 08:25:06;;;;;;;15.57;3.25;;;;;;;;;;6165897;23;20023;-48
2023/09/19 08:27:36;;;;;;;14.07;3.53;;;;;;;;;;6148649;23;20082;-49
2023/09/19 08:30:04;;;;;;;16.67;2.73;;;;;;;;;;6144915;23;20331;-47
2023/09/19 08:32:36;;;;;;;15.18;2.45;;;;;;;;;;6140911;23;20017;-49
2023/09/19 08:35:04;;;;;;;17.10;3.58;;;;;;;;;;6163800;23;20334;-50
2023/09/19 08:37:35;;;;;;;22.38;4.22;;;;;;;;;;6159609;23;20575;-48
2023/09/19 08:40:02;;;;;;;16.63;3.53;;;;;;;;;;6159847;23;20016;-47
2023/09/19 08:42:32;;;;;;;15.07;3.70;;;;;;;;;;6159897;23;20021;-47
2023/09/19 08:45:02;;;;;;;11.73;3.15;;;;;;;;;;6184986;23;20017;-49
2023/09/19 08:47:35;;;;;;;14.98;2.58;;;;;;;;;;6178600;23;20027;-50
2023/09/19 08:50:11;;;;;;;13.93;3.13;;;;;;;;;;6175464;23;20448;-50
2023/09/19 08:52:42;;;;;;;16.00;3.17;;;;;;;;;;6177244;23;20016;-47
2023/09/19 08:55:12;;;;;;;13.97;2.77;;;;;;;;;;6189669;23;20033;-48
2023/09/19 08:57:43;;;;;;;12.02;3.42;;;;;;;;;;6180284;23;20013;-48
2023/09/19 09:00:14;;;;;;;13.32;3.03;;;;;;;;;;6154049;23;20016;-48
2023/09/19 09:02:44;;;;;;;14.00;2.72;;;;;;;;;;6170622;23;20021;-48
2023/09/19 09:05:14;;;;;;;14.90;2.65;;;;;;;;;;6170426;23;20448;-46
2023/09/19 09:07:42;;;;;;;11.73;2.13;;;;;;;;;;6185895;23;20017;-46
2023/09/19 09:10:10;;;;;;;21.33;3.88;;;;;;;;;;6177996;23;20021;-47
2023/09/19 09:12:41;;;;;;;14.35;3.60;;;;;;;;;;6184755;23;20111;-48
2023/09/19 09:15:11;;;;;;;11.13;2.85;;;;;;;;;;6161528;23;20359;-47
2023/09/19 09:17:40;;;;;;;13.77;2.75;;;;;;;;;;6176718;23;20086;-46
2023/09/19 09:20:09;;;;;;;16.23;2.70;;;;;;;;;;6181834;23;20020;-49
2023/09/19 09:22:44;;;;;;;14.63;2.80;;;;;;;;;;6178887;23;20020;-49
2023/09/19 09:25:12;;;;;;;14.90;2.17;;;;;;;;;;6189676;23;20013;-48
2023/09/19 09:27:41;;;;;;;16.13;2.78;;;;;;;;;;6174028;23;20044;-47
2023/09/19 09:30:09;;;;;;;14.65;2.90;;;;;;;;;;6159243;23;20024;-47
2023/09/19 09:32:39;;;;;;;14.70;3.33;;;;;;;;;;6155217;23;20021;-47
2023/09/19 09:35:23;;;;;;;15.30;3.50;;;;;;;;;;6185638;23;20020;-46
2023/09/19 09:38:06;;;;;;;13.20;3.03;;;;;;;;;;6170846;23;20895;-46
2023/09/19 09:40:47;;;;;;;11.10;2.90;;;;;;;;;;6180071;23;20639;-46
2023/09/19 09:43:28;;;;;;;14.93;3.70;;;;;;;;;;6183804;23;20024;-43
2023/09/19 09:52:16;;;;;;;10.75;1.90;;;;;;;;;;5103290;27;20122;-49
2023/09/19 09:54:59;;;;;;;12.52;2.85;;;;;;;;;;5066851;28;20106;-47
2023/09/19 09:57:27;;;;;;;11.55;2.58;;;;;;;;;;5058855;28;20047;-48
2023/09/19 09:59:58;;;;;;;16.43;3.00;;;;;;;;;;5071738;28;20147;-45
2023/09/19 10:02:29;;;;;;;13.13;2.55;;;;;;;;;;5061587;28;20173;-48
2023/09/19 10:05:09;;;;;;;16.23;2.90;;;;;;;;;;5067276;28;20043;-50
2023/09/19 10:07:42;;;;;;;12.07;2.72;;;;;;;;;;4715620;28;9999894;-49
2023/09/19 10:10:15;;;;;;;16.98;2.75;;;;;;;;;;5080023;28;20047;-48
2023/09/19 10:12:45;;;;;;;13.70;2.33;;;;;;;;;;5068306;28;20052;-47
2023/09/19 10:15:15;;;;;;;10.90;2.25;;;;;;;;;;5059713;28;20498;-49
2023/09/19 10:17:44;;;;;;;8.55;2.10;;;;;;;;;;5025516;28;20101;-49
2023/09/19 10:23:12;;;;;;;13.35;2.50;;;;;;;;;;5049768;28;20494;-47
2023/09/19 10:25:41;;;;;;;14.70;2.00;;;;;;;;;;5063537;28;20501;-47
2023/09/19 10:28:13;;;;;;;11.57;2.67;;;;;;;;;;5073040;28;20063;-50
2023/09/19 10:30:44;;;;;;;10.02;2.08;;;;;;;;;;5070808;28;20044;-46
2023/09/19 10:33:13;;;;;;;9.30;1.65;;;;;;;;;;5060666;28;20202;-47
2023/09/19 10:35:44;;;;;;;11.50;1.70;;;;;;;;;;5078710;28;20044;-49
2023/09/19 10:38:17;;;;;;;14.23;2.03;;;;;;;;;;5062668;28;20037;-47
2023/09/19 10:40:50;;;;;;;11.63;2.58;;;;;;;;;;5063956;28;20448;-49
2023/09/19 10:43:18;;;;;;;11.25;2.60;;;;;;;;;;5078253;28;20093;-47
2023/09/19 10:45:52;;;;;;;8.68;1.55;;;;;;;;;;5059213;28;20040;-48
2023/09/19 10:48:25;;;;;;;9.05;1.85;;;;;;;;;;5059840;28;20044;-47
2023/09/19 10:51:07;;;;;;;8.43;2.00;;;;;;;;;;5058134;28;20450;-49
2023/09/19 10:53:50;;;;;;;7.85;1.83;;;;;;;;;;5068688;27;20598;-49
2023/09/19 10:56:21;;;;;;;7.03;1.90;;;;;;;;;;5048720;28;20093;-47
2023/09/19 10:58:49;;;;;;;10.05;2.03;;;;;;;;;;5064489;28;20123;-49
2023/09/19 11:01:18;;;;;;;10.02;2.08;;;;;;;;;;5058541;28;20494;-49
2023/09/19 11:03:48;;;;;;;8.73;2.07;;;;;;;;;;5046116;28;20035;-47
2023/09/19 11:06:18;;;;;;;9.10;2.05;;;;;;;;;;5047699;28;20787;-52
2023/09/19 11:09:00;;;;;;;10.18;2.10;;;;;;;;;;5049767;28;20041;-48
2023/09/19 11:11:41;;;;;;;10.20;1.80;;;;;;;;;;5031701;28;20082;-52
2023/09/19 11:14:16;;;;;;;10.25;2.10;;;;;;;;;;4986506;28;20706;-51
2023/09/19 11:17:03;;;;;;;7.57;1.73;;;;;;;;;;5026017;28;20087;-50
2023/09/19 11:19:45;;;;;;;13.60;1.92;;;;;;;;;;5034397;28;20117;-50
2023/09/19 11:22:13;;;;;;;10.48;1.25;;;;;;;;;;5047733;28;20050;-49
2023/09/19 11:24:42;;;;;;;10.38;1.40;;;;;;;;;;5033137;28;20551;-47
2023/09/19 11:27:14;;;;;;;5.70;1.02;;;;;;;;;;5028373;28;20036;-51
2023/09/19 11:29:42;;;;;;;8.37;1.50;;;;;;;;;;5032427;28;20040;-48
2023/09/19 11:32:17;;;;;;;5.70;1.52;;;;;;;;;;5045214;28;21586;-49
2023/09/19 11:34:50;;;;;;;7.95;1.95;;;;;;;;;;5038541;28;20044;-52
2023/09/19 11:37:32;;;;;;;6.30;1.65;;;;;;;;;;5032323;28;20039;-50
2023/09/19 11:40:15;;;;;;;12.23;1.73;;;;;;;;;;5026173;28;20048;-50
2023/09/19 11:42:45;;;;;;;5.47;1.13;;;;;;;;;;5038449;28;20625;-49
2023/09/19 11:45:32;;;;;;;9.40;1.30;;;;;;;;;;5034124;28;20707;-48
2023/09/19 11:48:01;;;;;;;5.60;0.82;;;;;;;;;;5064273;27;20040;-49
2023/09/19 11:50:32;;;;;;;5.45;1.38;;;;;;;;;;5040696;28;20060;-48
2023/09/19 11:53:00;;;;;;;6.72;1.10;;;;;;;;;;5044915;28;20032;-48
2023/09/19 11:55:32;;;;;;;5.53;1.10;;;;;;;;;;5042560;28;20480;-49
2023/09/19 11:58:00;;;;;;;5.13;0.95;;;;;;;;;;5033461;28;20520;-50
2023/09/19 12:00:28;;;;;;;5.85;1.10;;;;;;;;;;5037927;28;20032;-48
2023/09/19 12:03:01;;;;;;;6.20;1.35;;;;;;;;;;5044708;28;20040;-53
2023/09/19 12:05:33;;;;;;;5.68;1.48;;;;;;;;;;5048065;28;20040;-49
2023/09/19 12:08:01;;;;;;;6.30;1.37;;;;;;;;;;5026448;28;20051;-50
2023/09/19 12:10:30;;;;;;;6.93;1.20;;;;;;;;;;5046872;28;20578;-47
2023/09/19 12:12:59;;;;;;;4.88;0.80;;;;;;;;;;5040586;28;20044;-50
2023/09/19 12:15:28;;;;;;;4.38;0.88;;;;;;;;;;5046107;28;20040;-48
2023/09/19 12:17:56;;;;;;;4.05;0.80;;;;;;;;;;5034298;28;20037;-47
2023/09/19 12:20:24;;;;;;;4.90;0.97;;;;;;;;;;5048679;28;20819;-49
2023/09/19 12:22:52;;;;;;;7.68;1.35;;;;;;;;;;5045552;28;20039;-47
2023/09/19 12:25:21;;;;;;;4.45;0.98;;;;;;;;;;5037172;28;20121;-48
2023/09/19 12:27:52;;;;;;;4.57;0.70;;;;;;;;;;5039364;28;20390;-47
2023/09/19 12:30:21;;;;;;;5.88;1.38;;;;;;;;;;5035465;28;20551;-51
2023/09/19 12:32:55;;;;;;;5.47;1.00;;;;;;;;;;5043780;28;20223;-49
2023/09/19 12:35:31;;;;;;;4.75;1.13;;;;;;;;;;5040878;28;20511;-46
2023/09/19 12:37:59;;;;;;;4.57;0.95;;;;;;;;;;5021709;28;20048;-50
2023/09/19 12:40:28;;;;;;;5.75;1.02;;;;;;;;;;5050529;28;20129;-48
2023/09/19 12:43:00;;;;;;;4.90;1.10;;;;;;;;;;4687796;28;9999762;-47
2023/09/19 12:45:28;;;;;;;5.50;0.95;;;;;;;;;;5049250;28;20055;-52
2023/09/19 12:48:15;;;;;;;6.97;0.98;;;;;;;;;;5022656;28;20039;-47
2023/09/19 12:51:11;;;;;;;5.33;0.80;;;;;;;;;;5001286;28;20621;-49
2023/09/19 12:53:42;;;;;;;5.47;1.05;;;;;;;;;;5049950;28;20447;-48
2023/09/19 12:56:15;;;;;;;4.40;0.88;;;;;;;;;;5022186;28;20608;-51
2023/09/19 12:58:51;;;;;;;6.60;1.20;;;;;;;;;;5043358;28;20596;-48
2023/09/19 13:01:19;;;;;;;4.57;1.33;;;;;;;;;;5042289;28;20040;-48
2023/09/19 13:03:47;;;;;;;4.07;0.83;;;;;;;;;;5047434;28;20089;-49
2023/09/19 13:06:16;;;;;;;4.75;0.90;;;;;;;;;;5034858;28;20036;-49
2023/09/19 13:08:49;;;;;;;8.02;0.93;;;;;;;;;;5039680;28;20052;-48
2023/09/19 13:11:19;;;;;;;4.55;0.75;;;;;;;;;;5048291;28;20048;-47
2023/09/19 13:13:48;;;;;;;7.45;1.20;;;;;;;;;;5027926;28;20059;-47
2023/09/19 13:16:22;;;;;;;4.70;1.00;;;;;;;;;;4693019;28;9999997;-48
2023/09/19 13:18:52;;;;;;;4.17;0.63;;;;;;;;;;5032614;28;20043;-50
2023/09/19 13:21:28;;;;;;;5.53;1.17;;;;;;;;;;5050170;28;20501;-47
2023/09/19 13:24:18;;;;;;;4.25;1.00;;;;;;;;;;5034711;28;20574;-48
2023/09/19 13:26:45;;;;;;;6.07;0.82;;;;;;;;;;5033521;28;20123;-47
2023/09/19 13:29:14;;;;;;;6.32;0.93;;;;;;;;;;5060639;28;20051;-47
2023/09/19 13:31:43;;;;;;;3.97;0.80;;;;;;;;;;5057958;28;20130;-48
2023/09/19 13:34:12;;;;;;;5.53;1.13;;;;;;;;;;5024145;28;20044;-51
2023/09/19 13:36:42;;;;;;;4.45;1.13;;;;;;;;;;5043579;28;20036;-48
2023/09/19 13:39:09;;;;;;;3.50;0.70;;;;;;;;;;5049814;28;20101;-47
2023/09/19 13:41:37;;;;;;;5.53;0.70;;;;;;;;;;5049841;28;20040;-49
2023/09/19 13:44:05;;;;;;;4.70;0.80;;;;;;;;;;5050839;28;20041;-48
2023/09/19 13:46:35;;;;;;;7.57;0.77;;;;;;;;;;5039322;28;20123;-51
2023/09/19 13:49:04;;;;;;;4.75;1.00;;;;;;;;;;5042171;28;20050;-48
2023/09/19 13:51:32;;;;;;;3.40;0.70;;;;;;;;;;5050536;28;20443;-48
2023/09/19 13:54:00;;;;;;;5.55;1.13;;;;;;;;;;5056783;28;20070;-47
2023/09/19 13:56:30;;;;;;;4.37;1.13;;;;;;;;;;5034043;28;20032;-48
2023/09/19 13:58:58;;;;;;;4.35;1.25;;;;;;;;;;5053886;28;20048;-49
2023/09/19 14:01:26;;;;;;;5.07;1.00;;;;;;;;;;5057193;28;20128;-47
2023/09/19 14:03:56;;;;;;;4.10;0.82;;;;;;;;;;5045047;28;20032;-49
2023/09/19 14:06:26;;;;;;;3.30;1.25;;;;;;;;;;5046295;28;20044;-48
2023/09/19 14:08:53;;;;;;;4.50;0.90;;;;;;;;;;5055044;28;20055;-47
2023/09/19 14:11:21;;;;;;;3.72;0.90;;;;;;;;;;5054400;28;20045;-48
2023/09/19 14:13:49;;;;;;;7.07;1.00;;;;;;;;;;5046496;28;20369;-47
2023/09/19 14:16:17;;;;;;;4.32;0.82;;;;;;;;;;5066560;28;20113;-47
2023/09/19 14:18:47;;;;;;;5.00;1.00;;;;;;;;;;5035463;28;20119;-48
2023/09/19 14:21:14;;;;;;;5.83;1.43;;;;;;;;;;5062602;27;20615;-48
2023/09/19 14:23:44;;;;;;;4.97;0.90;;;;;;;;;;5058688;28;20542;-49
2023/09/19 14:26:12;;;;;;;5.47;1.50;;;;;;;;;;5038702;28;20598;-48
2023/09/19 14:28:40;;;;;;;11.45;1.15;;;;;;;;;;5051616;28;20101;-47
2023/09/19 14:31:09;;;;;;;8.35;1.95;;;;;;;;;;5030421;28;20115;-47
2023/09/19 14:33:37;;;;;;;4.90;1.30;;;;;;;;;;5039652;28;20043;-49
2023/09/19 14:36:08;;;;;;;6.45;1.80;;;;;;;;;;5032956;28;20448;-47
2023/09/19 14:38:36;;;;;;;8.10;1.80;;;;;;;;;;5074772;28;20451;-48
2023/09/19 14:41:05;;;;;;;8.52;1.67;;;;;;;;;;5034250;28;20347;-47
2023/09/19 14:43:34;;;;;;;6.65;1.60;;;;;;;;;;5053819;28;20039;-52
2023/09/19 14:46:03;;;;;;;8.87;1.77;;;;;;;;;;5033811;28;20447;-48
2023/09/19 14:48:33;;;;;;;7.35;1.45;;;;;;;;;;5040995;28;20490;-50
2023/09/19 14:51:06;;;;;;;11.07;2.08;;;;;;;;;;5039136;28;20048;-52
2023/09/19 14:53:34;;;;;;;10.77;1.75;;;;;;;;;;5050910;28;20502;-47
2023/09/19 14:56:03;;;;;;;13.40;2.40;;;;;;;;;;5029468;28;20129;-48
2023/09/19 14:58:38;;;;;;;7.47;1.67;;;;;;;;;;5041512;28;20036;-49
2023/09/19 15:01:07;;;;;;;8.65;2.15;;;;;;;;;;5043112;28;20047;-49
2023/09/19 15:03:35;;;;;;;15.07;2.22;;;;;;;;;;5050359;28;20048;-48